sensor_id;sensor_type;location;lat;lon;timestamp;pressure;altitude;pressure_sealevel;temperature;humidity
15272;BME280;7737;51.578;7.268;2023-11-19T00:00:36;100445.25;;;11.15;100.00
15272;BME280;7737;51.578;7.268;2023-11-19T00:03:02;100482.19;;;11.21;100.00
15272;BME280;7737;51.578;7.268;2023-11-19T00:05:32;100500.03;;;11.19;100.00
15272;BME280;7737;51.578;7.268;2023-11-19T00:07:58;100501.72;;;11.20;100.00
15272;BME280;7737;51.578;7.268;2023-11-19T00:10:25;100485.59;;;11.23;100.00
15272;BME280;7737;51.578;7.268;2023-11-19T00:12:51;100488.78;;;11.30;100.00
15272;BME280;7737;51.578;7.268;2023-11-19T00:15:18;100492.97;;;11.34;100.00
15272;BME280;7737;51.578;7.268;2023-11-19T00:17:46;100492.91;;;11.35;100.00
15272;BME280;7737;51.578;7.268;2023-11-19T00:20:13;100486.47;;;11.39;100.00
15272;BME280;7737;51.578;7.268;2023-11-19T00:22:41;100470.50;;;11.39;100.00
15272;BME280;7737;51.578;7.268;2023-11-19T00:25:08;100471.69;;;11.49;100.00
15272;BME280;7737;51.578;7.268;2023-11-19T00:27:35;100456.56;;;11.50;100.00
15272;BME280;7737;51.578;7.268;2023-11-19T00:30:03;100477.34;;;11.59;100.00
15272;BME280;7737;51.578;7.268;2023-11-19T00:32:31;100483.34;;;11.62;100.00
15272;BME280;7737;51.578;7.268;2023-11-19T00:34:57;100474.25;;;11.67;100.00
15272;BME280;7737;51.578;7.268;2023-11-19T00:37:24;100467.81;;;11.71;100.00
15272;BME280;7737;51.578;7.268;2023-11-19T00:39:52;100469.78;;;11.67;100.00
15272;BME280;7737;51.578;7.268;2023-11-19T00:42:18;100464.81;;;11.77;100.00
15272;BME280;7737;51.578;7.268;2023-11-19T00:44:45;100466.88;;;11.72;100.00
15272;BME280;7737;51.578;7.268;2023-11-19T00:47:12;100461.19;;;11.78;100.00
15272;BME280;7737;51.578;7.268;2023-11-19T00:49:38;100454.16;;;11.77;100.00
15272;BME280;7737;51.578;7.268;2023-11-19T00:52:05;100456.06;;;11.89;100.00
15272;BME280;7737;51.578;7.268;2023-11-19T00:54:32;100452.75;;;11.85;100.00
15272;BME280;7737;51.578;7.268;2023-11-19T00:57:00;100448.78;;;11.92;100.00
15272;BME280;7737;51.578;7.268;2023-11-19T00:59:27;100454.09;;;11.92;100.00
15272;BME280;7737;51.578;7.268;2023-11-19T01:01:54;100456.59;;;11.95;100.00
15272;BME280;7737;51.578;7.268;2023-11-19T01:04:21;100447.56;;;11.98;100.00
15272;BME280;7737;51.578;7.268;2023-11-19T01:06:49;100449.63;;;11.93;100.00
15272;BME280;7737;51.578;7.268;2023-11-19T01:09:16;100450.22;;;11.98;100.00
15272;BME280;7737;51.578;7.268;2023-11-19T01:11:42;100447.38;;;12.01;100.00
15272;BME280;7737;51.578;7.268;2023-11-19T01:14:10;100449.75;;;12.05;100.00
15272;BME280;7737;51.578;7.268;2023-11-19T01:16:37;100451.56;;;12.05;100.00
15272;BME280;7737;51.578;7.268;2023-11-19T01:19:03;100450.78;;;12.03;100.00
15272;BME280;7737;51.578;7.268;2023-11-19T01:21:30;100457.66;;;12.07;100.00
15272;BME280;7737;51.578;7.268;2023-11-19T01:23:57;100470.78;;;12.10;100.00
15272;BME280;7737;51.578;7.268;2023-11-19T01:26:23;100469.09;;;12.09;100.00
15272;BME280;7737;51.578;7.268;2023-11-19T01:28:50;100480.31;;;12.14;100.00
15272;BME280;7737;51.578;7.268;2023-11-19T01:31:19;100475.09;;;12.12;100.00
15272;BME280;7737;51.578;7.268;2023-11-19T01:33:45;100466.25;;;12.12;100.00
15272;BME280;7737;51.578;7.268;2023-11-19T01:36:13;100460.75;;;12.15;100.00
15272;BME280;7737;51.578;7.268;2023-11-19T01:38:40;100454.38;;;12.17;100.00
15272;BME280;7737;51.578;7.268;2023-11-19T01:41:06;100456.75;;;12.22;100.00
15272;BME280;7737;51.578;7.268;2023-11-19T01:43:33;100457.03;;;12.17;100.00
15272;BME280;7737;51.578;7.268;2023-11-19T01:46:00;100464.16;;;12.17;100.00
15272;BME280;7737;51.578;7.268;2023-11-19T01:48:29;100453.13;;;12.23;100.00
15272;BME280;7737;51.578;7.268;2023-11-19T01:50:56;100449.50;;;12.24;100.00
15272;BME280;7737;51.578;7.268;2023-11-19T01:53:23;100440.56;;;12.25;100.00
15272;BME280;7737;51.578;7.268;2023-11-19T01:55:51;100439.22;;;12.32;100.00
15272;BME280;7737;51.578;7.268;2023-11-19T01:58:19;100396.41;;;12.35;100.00
15272;BME280;7737;51.578;7.268;2023-11-19T02:00:46;100393.63;;;12.37;100.00
15272;BME280;7737;51.578;7.268;2023-11-19T02:03:13;100391.44;;;12.43;100.00
15272;BME280;7737;51.578;7.268;2023-11-19T02:05:42;100390.59;;;12.43;100.00
15272;BME280;7737;51.578;7.268;2023-11-19T02:08:09;100386.31;;;12.40;100.00
15272;BME280;7737;51.578;7.268;2023-11-19T02:10:35;100383.75;;;12.39;100.00
15272;BME280;7737;51.578;7.268;2023-11-19T02:13:02;100389.72;;;12.42;100.00
15272;BME280;7737;51.578;7.268;2023-11-19T02:15:30;100385.94;;;12.46;100.00
15272;BME280;7737;51.578;7.268;2023-11-19T02:17:57;100388.31;;;12.51;100.00
15272;BME280;7737;51.578;7.268;2023-11-19T02:20:23;100380.41;;;12.49;100.00
15272;BME280;7737;51.578;7.268;2023-11-19T02:22:53;100388.50;;;12.48;100.00
15272;BME280;7737;51.578;7.268;2023-11-19T02:25:22;100375.72;;;12.53;100.00
15272;BME280;7737;51.578;7.268;2023-11-19T02:27:54;100371.06;;;12.56;100.00
15272;BME280;7737;51.578;7.268;2023-11-19T02:30:22;100377.06;;;12.60;100.00
15272;BME280;7737;51.578;7.268;2023-11-19T02:32:52;100388.78;;;12.57;100.00
15272;BME280;7737;51.578;7.268;2023-11-19T02:35:18;100386.69;;;12.62;100.00
15272;BME280;7737;51.578;7.268;2023-11-19T02:37:47;100380.50;;;12.62;100.00
15272;BME280;7737;51.578;7.268;2023-11-19T02:40:13;100369.34;;;12.69;100.00
15272;BME280;7737;51.578;7.268;2023-11-19T02:42:40;100351.25;;;12.60;100.00
15272;BME280;7737;51.578;7.268;2023-11-19T02:45:09;100345.53;;;12.66;100.00
15272;BME280;7737;51.578;7.268;2023-11-19T02:47:39;100348.19;;;12.66;100.00
15272;BME280;7737;51.578;7.268;2023-11-19T02:50:07;100343.59;;;12.68;100.00
15272;BME280;7737;51.578;7.268;2023-11-19T02:52:39;100355.13;;;12.69;100.00
15272;BME280;7737;51.578;7.268;2023-11-19T02:55:06;100364.38;;;12.77;100.00
15272;BME280;7737;51.578;7.268;2023-11-19T02:57:35;100364.94;;;12.68;100.00
15272;BME280;7737;51.578;7.268;2023-11-19T03:00:02;100346.84;;;12.73;100.00
15272;BME280;7737;51.578;7.268;2023-11-19T03:02:40;100355.69;;;12.74;100.00
15272;BME280;7737;51.578;7.268;2023-11-19T03:05:11;100353.03;;;12.74;100.00
15272;BME280;7737;51.578;7.268;2023-11-19T03:07:37;100356.47;;;12.76;100.00
15272;BME280;7737;51.578;7.268;2023-11-19T03:10:04;100349.59;;;12.72;100.00
15272;BME280;7737;51.578;7.268;2023-11-19T03:12:31;100335.34;;;12.73;100.00
15272;BME280;7737;51.578;7.268;2023-11-19T03:14:58;100343.03;;;12.77;100.00
15272;BME280;7737;51.578;7.268;2023-11-19T03:17:24;100345.13;;;12.72;100.00
15272;BME280;7737;51.578;7.268;2023-11-19T03:19:53;100334.09;;;12.78;100.00
15272;BME280;7737;51.578;7.268;2023-11-19T03:22:19;100337.56;;;12.79;100.00
15272;BME280;7737;51.578;7.268;2023-11-19T03:24:46;100330.44;;;12.79;100.00
15272;BME280;7737;51.578;7.268;2023-11-19T03:27:12;100314.63;;;12.76;100.00
15272;BME280;7737;51.578;7.268;2023-11-19T03:29:39;100316.72;;;12.86;100.00
15272;BME280;7737;51.578;7.268;2023-11-19T03:32:05;100322.13;;;12.84;100.00
15272;BME280;7737;51.578;7.268;2023-11-19T03:34:32;100328.13;;;12.88;100.00
15272;BME280;7737;51.578;7.268;2023-11-19T03:37:00;100341.66;;;12.84;100.00
15272;BME280;7737;51.578;7.268;2023-11-19T03:39:28;100350.22;;;12.90;100.00
15272;BME280;7737;51.578;7.268;2023-11-19T03:41:54;100335.38;;;12.86;100.00
15272;BME280;7737;51.578;7.268;2023-11-19T03:44:21;100338.13;;;12.84;100.00
15272;BME280;7737;51.578;7.268;2023-11-19T03:46:47;100334.84;;;12.80;100.00
15272;BME280;7737;51.578;7.268;2023-11-19T03:49:14;100335.78;;;12.79;100.00
15272;BME280;7737;51.578;7.268;2023-11-19T03:51:40;100338.13;;;12.84;100.00
15272;BME280;7737;51.578;7.268;2023-11-19T03:54:08;100347.97;;;12.83;100.00
15272;BME280;7737;51.578;7.268;2023-11-19T03:56:35;100344.28;;;12.72;100.00
15272;BME280;7737;51.578;7.268;2023-11-19T03:59:01;100353.22;;;12.71;100.00
15272;BME280;7737;51.578;7.268;2023-11-19T04:01:28;100349.31;;;12.76;100.00
15272;BME280;7737;51.578;7.268;2023-11-19T04:03:54;100354.94;;;12.72;100.00
15272;BME280;7737;51.578;7.268;2023-11-19T04:06:22;100359.69;;;12.81;100.00
15272;BME280;7737;51.578;7.268;2023-11-19T04:08:48;100355.88;;;12.85;100.00
15272;BME280;7737;51.578;7.268;2023-11-19T04:11:16;100355.63;;;12.75;100.00
15272;BME280;7737;51.578;7.268;2023-11-19T04:13:43;100356.91;;;12.82;100.00
15272;BME280;7737;51.578;7.268;2023-11-19T04:16:09;100351.22;;;12.74;100.00
15272;BME280;7737;51.578;7.268;2023-11-19T04:18:36;100355.63;;;12.75;100.00
15272;BME280;7737;51.578;7.268;2023-11-19T04:21:05;100356.66;;;12.73;100.00
15272;BME280;7737;51.578;7.268;2023-11-19T04:23:33;100353.34;;;12.69;100.00
15272;BME280;7737;51.578;7.268;2023-11-19T04:26:02;100343.59;;;12.68;100.00
15272;BME280;7737;51.578;7.268;2023-11-19T04:28:30;100354.19;;;12.70;100.00
15272;BME280;7737;51.578;7.268;2023-11-19T04:30:57;100352.38;;;12.70;100.00
15272;BME280;7737;51.578;7.268;2023-11-19T04:33:23;100362.00;;;12.73;100.00
15272;BME280;7737;51.578;7.268;2023-11-19T04:35:50;100367.72;;;12.67;100.00
15272;BME280;7737;51.578;7.268;2023-11-19T04:38:16;100364.56;;;12.60;100.00
15272;BME280;7737;51.578;7.268;2023-11-19T04:40:43;100372.00;;;12.55;100.00
15272;BME280;7737;51.578;7.268;2023-11-19T04:43:10;100373.63;;;12.58;100.00
15272;BME280;7737;51.578;7.268;2023-11-19T04:45:38;100368.69;;;12.52;100.00
15272;BME280;7737;51.578;7.268;2023-11-19T04:48:05;100368.69;;;12.52;100.00
15272;BME280;7737;51.578;7.268;2023-11-19T04:50:31;100356.59;;;12.46;100.00
15272;BME280;7737;51.578;7.268;2023-11-19T04:52:58;100352.78;;;12.50;100.00
15272;BME280;7737;51.578;7.268;2023-11-19T04:55:25;100347.94;;;12.43;100.00
15272;BME280;7737;51.578;7.268;2023-11-19T04:57:54;100347.25;;;12.39;100.00
15272;BME280;7737;51.578;7.268;2023-11-19T05:00:20;100345.56;;;12.38;100.00
15272;BME280;7737;51.578;7.268;2023-11-19T05:02:49;100357.53;;;12.31;100.00
15272;BME280;7737;51.578;7.268;2023-11-19T05:05:16;100352.50;;;12.27;100.00
15272;BME280;7737;51.578;7.268;2023-11-19T05:07:42;100348.16;;;12.26;100.00
15272;BME280;7737;51.578;7.268;2023-11-19T05:10:09;100341.47;;;12.33;100.00
15272;BME280;7737;51.578;7.268;2023-11-19T05:12:36;100341.00;;;12.26;100.00
15272;BME280;7737;51.578;7.268;2023-11-19T05:15:03;100337.75;;;12.21;100.00
15272;BME280;7737;51.578;7.268;2023-11-19T05:17:29;100345.94;;;12.18;100.00
15272;BME280;7737;51.578;7.268;2023-11-19T05:19:58;100337.56;;;12.24;100.00
15272;BME280;7737;51.578;7.268;2023-11-19T05:22:24;100342.03;;;12.23;100.00
15272;BME280;7737;51.578;7.268;2023-11-19T05:24:51;100353.38;;;12.27;100.00
15272;BME280;7737;51.578;7.268;2023-11-19T05:27:18;100351.28;;;12.32;100.00
15272;BME280;7737;51.578;7.268;2023-11-19T05:29:44;100340.63;;;12.32;100.00
15272;BME280;7737;51.578;7.268;2023-11-19T05:32:10;100336.81;;;12.36;100.00
15272;BME280;7737;51.578;7.268;2023-11-19T05:34:37;100333.19;;;12.37;100.00
15272;BME280;7737;51.578;7.268;2023-11-19T05:37:05;100322.53;;;12.37;100.00
15272;BME280;7737;51.578;7.268;2023-11-19T05:39:32;100335.56;;;12.42;100.00
15272;BME280;7737;51.578;7.268;2023-11-19T05:41:58;100330.59;;;12.50;100.00
15272;BME280;7737;51.578;7.268;2023-11-19T05:44:25;100334.13;;;12.50;100.00
15272;BME280;7737;51.578;7.268;2023-11-19T05:46:51;100321.09;;;12.46;100.00
15272;BME280;7737;51.578;7.268;2023-11-19T05:49:18;100320.41;;;12.42;100.00
15272;BME280;7737;51.578;7.268;2023-11-19T05:51:45;100323.19;;;12.41;100.00
15272;BME280;7737;51.578;7.268;2023-11-19T05:54:13;100316.31;;;12.37;100.00
15272;BME280;7737;51.578;7.268;2023-11-19T05:56:40;100322.06;;;12.31;100.00
15272;BME280;7737;51.578;7.268;2023-11-19T05:59:07;100317.78;;;12.28;100.00
15272;BME280;7737;51.578;7.268;2023-11-19T06:01:40;100333.78;;;12.28;100.00
15272;BME280;7737;51.578;7.268;2023-11-19T06:04:07;100326.91;;;12.24;100.00
15272;BME280;7737;51.578;7.268;2023-11-19T06:06:33;100333.56;;;12.31;100.00
15272;BME280;7737;51.578;7.268;2023-11-19T06:09:00;100327.03;;;12.23;100.00
15272;BME280;7737;51.578;7.268;2023-11-19T06:11:33;100321.97;;;12.18;100.00
15272;BME280;7737;51.578;7.268;2023-11-19T06:14:01;100322.94;;;12.17;100.00
15272;BME280;7737;51.578;7.268;2023-11-19T06:16:27;100321.59;;;12.24;100.00
15272;BME280;7737;51.578;7.268;2023-11-19T06:18:54;100326.16;;;12.22;100.00
15272;BME280;7737;51.578;7.268;2023-11-19T06:21:21;100331.88;;;12.30;100.00
15272;BME280;7737;51.578;7.268;2023-11-19T06:23:47;100332.44;;;12.21;100.00
15272;BME280;7737;51.578;7.268;2023-11-19T06:26:14;100336.06;;;12.20;100.00
15272;BME280;7737;51.578;7.268;2023-11-19T06:28:42;100340.34;;;12.23;100.00
15272;BME280;7737;51.578;7.268;2023-11-19T06:31:08;100332.84;;;12.15;100.00
15272;BME280;7737;51.578;7.268;2023-11-19T06:33:35;100333.66;;;12.15;100.00
15272;BME280;7737;51.578;7.268;2023-11-19T06:36:01;100330.63;;;12.21;100.00
15272;BME280;7737;51.578;7.268;2023-11-19T06:38:28;100334.53;;;12.16;100.00
15272;BME280;7737;51.578;7.268;2023-11-19T06:40:55;100339.84;;;12.16;100.00
15272;BME280;7737;51.578;7.268;2023-11-19T06:43:21;100330.91;;;12.17;100.00
15272;BME280;7737;51.578;7.268;2023-11-19T06:45:49;100330.91;;;12.17;100.00
15272;BME280;7737;51.578;7.268;2023-11-19T06:48:16;100339.66;;;12.19;100.00
15272;BME280;7737;51.578;7.268;2023-11-19T06:50:42;100332.84;;;12.15;100.00
15272;BME280;7737;51.578;7.268;2023-11-19T06:53:09;100330.91;;;12.17;100.00
15272;BME280;7737;51.578;7.268;2023-11-19T06:55:35;100348.22;;;12.24;100.00
15272;BME280;7737;51.578;7.268;2023-11-19T06:58:02;100349.47;;;12.18;100.00
15272;BME280;7737;51.578;7.268;2023-11-19T07:00:29;100346.91;;;12.17;100.00
15272;BME280;7737;51.578;7.268;2023-11-19T07:02:58;100347.09;;;12.14;100.00
15272;BME280;7737;51.578;7.268;2023-11-19T07:05:25;100359.06;;;12.21;100.00
15272;BME280;7737;51.578;7.268;2023-11-19T07:07:52;100362.53;;;12.23;100.00
15272;BME280;7737;51.578;7.268;2023-11-19T07:10:19;100357.19;;;12.23;100.00
15272;BME280;7737;51.578;7.268;2023-11-19T07:12:46;100355.47;;;12.22;100.00
15272;BME280;7737;51.578;7.268;2023-11-19T07:15:15;100349.97;;;12.25;100.00
15272;BME280;7737;51.578;7.268;2023-11-19T07:17:43;100360.31;;;12.30;100.00
15272;BME280;7737;51.578;7.268;2023-11-19T07:20:12;100366.50;;;12.30;100.00
15272;BME280;7737;51.578;7.268;2023-11-19T07:22:42;100366.81;;;12.26;100.00
15272;BME280;7737;51.578;7.268;2023-11-19T07:25:11;100366.50;;;12.30;100.00
15272;BME280;7737;51.578;7.268;2023-11-19T07:27:38;100374.50;;;12.30;100.00
15272;BME280;7737;51.578;7.268;2023-11-19T07:30:06;100369.00;;;12.33;100.00
15272;BME280;7737;51.578;7.268;2023-11-19T07:32:33;100378.31;;;12.26;100.00
15272;BME280;7737;51.578;7.268;2023-11-19T07:35:00;100374.13;;;12.22;100.00
15272;BME280;7737;51.578;7.268;2023-11-19T07:37:28;100385.66;;;12.23;100.00
15272;BME280;7737;51.578;7.268;2023-11-19T07:39:54;100379.34;;;12.23;100.00
15272;BME280;7737;51.578;7.268;2023-11-19T07:42:21;100371.28;;;12.25;100.00
15272;BME280;7737;51.578;7.268;2023-11-19T07:44:49;100373.56;;;12.17;100.00
15272;BME280;7737;51.578;7.268;2023-11-19T07:47:15;100378.03;;;12.16;100.00
15272;BME280;7737;51.578;7.268;2023-11-19T07:49:42;100388.00;;;12.13;100.00
15272;BME280;7737;51.578;7.268;2023-11-19T07:52:09;100372.59;;;12.18;100.00
15272;BME280;7737;51.578;7.268;2023-11-19T07:54:36;100381.38;;;12.20;100.00
15272;BME280;7737;51.578;7.268;2023-11-19T07:57:03;100380.00;;;12.13;100.00
15272;BME280;7737;51.578;7.268;2023-11-19T07:59:30;100382.50;;;12.16;100.00
15272;BME280;7737;51.578;7.268;2023-11-19T08:01:56;100395.06;;;12.14;100.00
15272;BME280;7737;51.578;7.268;2023-11-19T08:04:23;100388.88;;;12.13;100.00
15272;BME280;7737;51.578;7.268;2023-11-19T08:06:50;100384.22;;;12.17;100.00
15272;BME280;7737;51.578;7.268;2023-11-19T08:09:17;100396.69;;;12.16;100.00
15272;BME280;7737;51.578;7.268;2023-11-19T08:11:45;100407.22;;;12.18;100.00
15272;BME280;7737;51.578;7.268;2023-11-19T08:14:11;100409.53;;;12.24;100.00
15272;BME280;7737;51.578;7.268;2023-11-19T08:16:38;100417.69;;;12.21;100.00
15272;BME280;7737;51.578;7.268;2023-11-19T08:19:05;100418.56;;;12.21;100.00
15272;BME280;7737;51.578;7.268;2023-11-19T08:21:32;100404.19;;;12.24;100.00
15272;BME280;7737;51.578;7.268;2023-11-19T08:23:58;100419.31;;;12.23;100.00
15272;BME280;7737;51.578;7.268;2023-11-19T08:26:25;100412.19;;;12.24;100.00
15272;BME280;7737;51.578;7.268;2023-11-19T08:28:53;100418.50;;;12.23;100.00
15272;BME280;7737;51.578;7.268;2023-11-19T08:31:19;100410.78;;;12.33;100.00
15272;BME280;7737;51.578;7.268;2023-11-19T08:33:46;100414.94;;;12.37;100.00
15272;BME280;7737;51.578;7.268;2023-11-19T08:36:15;100417.06;;;12.46;100.00
15272;BME280;7737;51.578;7.268;2023-11-19T08:38:42;100414.84;;;12.52;100.00
15272;BME280;7737;51.578;7.268;2023-11-19T08:41:09;100417.63;;;12.51;100.00
15272;BME280;7737;51.578;7.268;2023-11-19T08:43:35;100412.13;;;12.54;100.00
15272;BME280;7737;51.578;7.268;2023-11-19T08:46:04;100416.69;;;12.52;100.00
15272;BME280;7737;51.578;7.268;2023-11-19T08:48:35;100394.50;;;12.51;100.00
15272;BME280;7737;51.578;7.268;2023-11-19T08:51:02;100407.06;;;12.49;100.00
15272;BME280;7737;51.578;7.268;2023-11-19T08:53:29;100407.53;;;12.42;100.00
15272;BME280;7737;51.578;7.268;2023-11-19T08:55:56;100415.06;;;12.35;100.00
15272;BME280;7737;51.578;7.268;2023-11-19T08:58:22;100408.00;;;12.34;100.00
15272;BME280;7737;51.578;7.268;2023-11-19T09:00:49;100414.50;;;12.44;100.00
15272;BME280;7737;51.578;7.268;2023-11-19T09:03:17;100407.53;;;12.42;100.00
15272;BME280;7737;51.578;7.268;2023-11-19T09:05:43;100417.06;;;12.46;100.00
15272;BME280;7737;51.578;7.268;2023-11-19T09:08:10;100412.19;;;12.52;100.00
15272;BME280;7737;51.578;7.268;2023-11-19T09:10:37;100412.19;;;12.66;100.00
15272;BME280;7737;51.578;7.268;2023-11-19T09:13:03;100414.09;;;12.64;100.00
15272;BME280;7737;51.578;7.268;2023-11-19T09:15:30;100416.03;;;12.62;100.00
15272;BME280;7737;51.578;7.268;2023-11-19T09:17:56;100440.97;;;12.61;100.00
15272;BME280;7737;51.578;7.268;2023-11-19T09:20:24;100409.53;;;12.66;100.00
15272;BME280;7737;51.578;7.268;2023-11-19T09:22:51;100420.94;;;12.68;100.00
15272;BME280;7737;51.578;7.268;2023-11-19T09:25:18;100422.88;;;12.66;100.00
15272;BME280;7737;51.578;7.268;2023-11-19T09:27:44;100416.41;;;12.70;100.00
15272;BME280;7737;51.578;7.268;2023-11-19T09:30:12;100419.06;;;12.70;100.00
15272;BME280;7737;51.578;7.268;2023-11-19T09:32:38;100416.41;;;12.70;100.00
15272;BME280;7737;51.578;7.268;2023-11-19T09:35:06;100414.28;;;12.75;100.00
15272;BME280;7737;51.578;7.268;2023-11-19T09:37:34;100407.91;;;12.78;100.00
15272;BME280;7737;51.578;7.268;2023-11-19T09:40:00;100419.22;;;12.81;100.00
15272;BME280;7737;51.578;7.268;2023-11-19T09:42:27;100401.53;;;12.80;100.00
15272;BME280;7737;51.578;7.268;2023-11-19T09:44:54;100421.63;;;12.86;100.00
15272;BME280;7737;51.578;7.268;2023-11-19T09:47:23;100396.38;;;12.77;100.00
15272;BME280;7737;51.578;7.268;2023-11-19T09:49:52;100410.28;;;12.82;100.00
15272;BME280;7737;51.578;7.268;2023-11-19T09:52:19;100405.50;;;12.73;100.00
15272;BME280;7737;51.578;7.268;2023-11-19T09:54:47;100415.03;;;12.77;100.00
15272;BME280;7737;51.578;7.268;2023-11-19T09:57:15;100400.19;;;12.73;100.00
15272;BME280;7737;51.578;7.268;2023-11-19T09:59:43;100410.00;;;12.73;100.00
15272;BME280;7737;51.578;7.268;2023-11-19T10:02:12;100414.28;;;12.75;100.00
15272;BME280;7737;51.578;7.268;2023-11-19T10:04:39;100414.28;;;12.75;100.00
15272;BME280;7737;51.578;7.268;2023-11-19T10:07:08;100418.09;;;12.86;100.00
15272;BME280;7737;51.578;7.268;2023-11-19T10:09:34;100416.56;;;12.81;100.00
15272;BME280;7737;51.578;7.268;2023-11-19T10:12:03;100410.94;;;12.86;100.00
15272;BME280;7737;51.578;7.268;2023-11-19T10:14:31;100412.19;;;12.80;100.00
15272;BME280;7737;51.578;7.268;2023-11-19T10:16:56;100408.78;;;12.78;100.00
15272;BME280;7737;51.578;7.268;2023-11-19T10:19:24;100397.50;;;12.88;100.00
15272;BME280;7737;51.578;7.268;2023-11-19T10:21:51;100388.94;;;12.82;100.00
15272;BME280;7737;51.578;7.268;2023-11-19T10:24:31;100378.25;;;12.82;100.00
15272;BME280;7737;51.578;7.268;2023-11-19T10:26:59;100382.66;;;12.83;100.00
15272;BME280;7737;51.578;7.268;2023-11-19T10:29:29;100399.03;;;12.92;100.00
15272;BME280;7737;51.578;7.268;2023-11-19T10:31:56;100379.38;;;12.93;100.00
15272;BME280;7737;51.578;7.268;2023-11-19T10:34:27;100384.22;;;13.00;100.00
15272;BME280;7737;51.578;7.268;2023-11-19T10:36:55;100376.22;;;13.00;100.00
15272;BME280;7737;51.578;7.268;2023-11-19T10:39:21;100375.94;;;13.05;100.00
15272;BME280;7737;51.578;7.268;2023-11-19T10:41:49;100380.88;;;13.11;100.00
15272;BME280;7737;51.578;7.268;2023-11-19T10:44:33;100377.81;;;13.17;100.00
15272;BME280;7737;51.578;7.268;2023-11-19T10:47:01;100374.72;;;13.10;100.00
15272;BME280;7737;51.578;7.268;2023-11-19T10:49:27;100376.59;;;13.08;100.00
15272;BME280;7737;51.578;7.268;2023-11-19T10:51:55;100374.91;;;13.07;100.00
15272;BME280;7737;51.578;7.268;2023-11-19T10:54:23;100374.22;;;13.04;100.00
15272;BME280;7737;51.578;7.268;2023-11-19T10:56:54;100372.97;;;12.95;100.00
15272;BME280;7737;51.578;7.268;2023-11-19T10:59:22;100376.63;;;12.94;100.00
15272;BME280;7737;51.578;7.268;2023-11-19T11:01:53;100368.50;;;12.96;100.00
15272;BME280;7737;51.578;7.268;2023-11-19T11:04:23;100367.75;;;13.08;100.00
15272;BME280;7737;51.578;7.268;2023-11-19T11:06:51;100365.03;;;13.22;100.00
15272;BME280;7737;51.578;7.268;2023-11-19T11:09:18;100360.53;;;13.22;100.00
15272;BME280;7737;51.578;7.268;2023-11-19T11:11:46;100368.75;;;13.46;100.00
15272;BME280;7737;51.578;7.268;2023-11-19T11:14:13;100363.41;;;13.46;100.00
15272;BME280;7737;51.578;7.268;2023-11-19T11:16:42;100359.22;;;13.42;100.00
15272;BME280;7737;51.578;7.268;2023-11-19T11:19:11;100360.38;;;13.38;100.00
15272;BME280;7737;51.578;7.268;2023-11-19T11:21:40;100360.38;;;13.38;100.00
15272;BME280;7737;51.578;7.268;2023-11-19T11:24:27;100360.44;;;13.24;100.00
15272;BME280;7737;51.578;7.268;2023-11-19T11:27:10;100356.31;;;13.32;100.00
15272;BME280;7737;51.578;7.268;2023-11-19T11:29:46;100355.69;;;13.29;100.00
15272;BME280;7737;51.578;7.268;2023-11-19T11:32:24;100366.09;;;13.19;100.00
15272;BME280;7737;51.578;7.268;2023-11-19T11:35:09;100374.84;;;13.21;100.00
15272;BME280;7737;51.578;7.268;2023-11-19T11:37:44;100366.75;;;13.23;100.00
15272;BME280;7737;51.578;7.268;2023-11-19T11:40:14;100362.31;;;13.36;100.00
15272;BME280;7737;51.578;7.268;2023-11-19T11:42:41;100357.91;;;13.35;100.00
15272;BME280;7737;51.578;7.268;2023-11-19T11:45:09;100353.56;;;13.34;100.00
15272;BME280;7737;51.578;7.268;2023-11-19T11:48:10;100357.75;;;13.24;100.00
15272;BME280;7737;51.578;7.268;2023-11-19T11:50:49;100361.59;;;13.20;100.00
15272;BME280;7737;51.578;7.268;2023-11-19T11:53:17;100341.97;;;13.21;100.00
15272;BME280;7737;51.578;7.268;2023-11-19T11:55:55;100338.88;;;13.27;100.00
15272;BME280;7737;51.578;7.268;2023-11-19T11:58:29;100339.44;;;13.32;100.00
15272;BME280;7737;51.578;7.268;2023-11-19T12:00:58;100336.56;;;13.35;100.00
15272;BME280;7737;51.578;7.268;2023-11-19T12:03:27;100335.59;;;13.36;100.00
15272;BME280;7737;51.578;7.268;2023-11-19T12:05:57;100333.81;;;13.36;100.00
15272;BME280;7737;51.578;7.268;2023-11-19T12:08:28;100326.22;;;13.43;100.00
15272;BME280;7737;51.578;7.268;2023-11-19T12:10:58;100308.84;;;13.50;100.00
15272;BME280;7737;51.578;7.268;2023-11-19T12:13:29;100309.06;;;13.85;100.00
15272;BME280;7737;51.578;7.268;2023-11-19T12:16:10;100316.13;;;13.86;100.00
15272;BME280;7737;51.578;7.268;2023-11-19T12:18:39;100306.94;;;13.77;100.00
15272;BME280;7737;51.578;7.268;2023-11-19T12:21:07;100322.63;;;13.69;100.00
15272;BME280;7737;51.578;7.268;2023-11-19T12:23:44;100308.72;;;13.64;100.00
15272;BME280;7737;51.578;7.268;2023-11-19T12:26:21;100320.91;;;13.56;100.00
15272;BME280;7737;51.578;7.268;2023-11-19T12:28:57;100307.25;;;13.60;100.00
15272;BME280;7737;51.578;7.268;2023-11-19T12:31:23;100305.63;;;13.58;100.00
15272;BME280;7737;51.578;7.268;2023-11-19T12:33:51;100307.13;;;13.62;100.00
15272;BME280;7737;51.578;7.268;2023-11-19T12:36:20;100296.91;;;13.68;100.00
15272;BME280;7737;51.578;7.268;2023-11-19T12:38:46;100298.91;;;13.77;100.00
15272;BME280;7737;51.578;7.268;2023-11-19T12:41:13;100285.56;;;13.77;100.00
15272;BME280;7737;51.578;7.268;2023-11-19T12:43:43;100280.88;;;13.68;100.00
15272;BME280;7737;51.578;7.268;2023-11-19T12:46:20;100282.75;;;13.66;100.00
15272;BME280;7737;51.578;7.268;2023-11-19T12:48:47;100281.41;;;13.73;100.00
15272;BME280;7737;51.578;7.268;2023-11-19T12:51:14;100283.53;;;13.68;100.00
15272;BME280;7737;51.578;7.268;2023-11-19T12:53:49;100271.13;;;13.67;100.00